Time;durP1;ratioP1;P1;durP2;ratioP2;P2;SDS_P1;SDS_P2;PMS_P1;PMS_P2;Temp;Humidity;BMP_temperature;BMP_pressure;BME280_temperature;BME280_humidity;BME280_pressure;Samples;Min_cycle;Max_cycle;Signal;HPM_P1;HPM_P2
2021/01/19 00:00:49;;;;;;;16.38;11.05;;;;;;;-9.70;88.18;93664.44;5011099;28;20057;-86
2021/01/19 00:03:15;;;;;;;9.40;8.38;;;;;;;-9.67;87.63;93670.06;5000720;28;20057;-85
2021/01/19 00:05:44;;;;;;;9.07;5.22;;;;;;;-9.68;87.59;93675.13;4991618;28;20054;-86
2021/01/19 00:08:10;;;;;;;4.07;3.75;;;;;;;-9.66;87.17;93666.72;4991057;28;20054;-85
2021/01/19 00:10:37;;;;;;;9.68;7.28;;;;;;;-9.70;87.18;93667.75;4991415;28;20297;-86
2021/01/19 00:13:04;;;;;;;24.15;9.18;;;;;;;-9.81;86.82;93667.47;4991035;28;20458;-85
2021/01/19 00:15:30;;;;;;;13.88;6.53;;;;;;;-9.91;86.75;93661.34;5002595;28;20073;-85
2021/01/19 00:17:56;;;;;;;10.23;6.68;;;;;;;-9.99;86.73;93651.75;4991697;28;20104;-85
2021/01/19 00:20:23;;;;;;;8.95;6.00;;;;;;;-9.95;86.35;93668.13;4991001;28;20050;-86
2021/01/19 00:22:50;;;;;;;7.57;6.00;;;;;;;-9.97;86.68;93670.69;4991438;28;20055;-85
2021/01/19 00:25:16;;;;;;;6.18;3.50;;;;;;;-10.00;87.86;93660.09;4991546;28;20046;-85
2021/01/19 00:27:42;;;;;;;17.40;7.80;;;;;;;-9.98;87.99;93663.31;4991361;28;20058;-85
2021/01/19 00:30:10;;;;;;;5.80;5.40;;;;;;;-10.02;87.96;93662.66;4991351;28;20046;-86
2021/01/19 00:32:36;;;;;;;8.98;8.10;;;;;;;-10.08;87.38;93653.81;4990956;28;20054;-85
2021/01/19 00:35:02;;;;;;;26.38;8.50;;;;;;;-10.02;88.14;93669.28;4991369;28;20051;-85
2021/01/19 00:37:29;;;;;;;8.80;7.72;;;;;;;-10.04;87.60;93666.09;4991211;28;20547;-86
2021/01/19 00:39:56;;;;;;;8.82;7.05;;;;;;;-10.07;87.86;93674.50;4991169;28;20434;-84
2021/01/19 00:42:22;;;;;;;15.27;8.55;;;;;;;-10.09;87.87;93671.28;4991057;28;20101;-86
2021/01/19 00:44:48;;;;;;;12.88;6.95;;;;;;;-10.13;88.17;93670.63;4991503;28;20058;-85
2021/01/19 00:47:14;;;;;;;6.68;5.97;;;;;;;-10.13;88.68;93669.81;4995105;28;20051;-85
2021/01/19 00:49:40;;;;;;;10.23;7.25;;;;;;;-10.18;88.07;93661.78;4995206;28;20054;-85
2021/01/19 00:52:07;;;;;;;6.25;5.57;;;;;;;-10.21;88.03;93662.72;4995123;28;20054;-85
2021/01/19 00:54:33;;;;;;;6.50;4.72;;;;;;;-10.25;87.99;93649.66;4994924;28;20046;-85
2021/01/19 00:57:00;;;;;;;10.85;6.90;;;;;;;-10.22;88.01;93656.97;5008297;28;20054;-85
2021/01/19 00:59:26;;;;;;;7.78;7.03;;;;;;;-10.24;87.46;93650.47;5014580;28;20054;-85
2021/01/19 01:01:52;;;;;;;10.38;6.28;;;;;;;-10.24;88.09;93651.25;5003679;28;20073;-85
2021/01/19 01:04:18;;;;;;;9.65;6.68;;;;;;;-10.58;88.22;93607.38;4994734;28;20105;-85
2021/01/19 01:06:45;;;;;;;6.97;4.72;;;;;;;-10.38;88.42;93631.25;4994857;28;20054;-86
2021/01/19 01:09:11;;;;;;;9.40;6.53;;;;;;;-10.28;88.05;93652.28;4994842;28;20046;-85
2021/01/19 01:11:39;;;;;;;9.18;5.53;;;;;;;-10.32;88.73;93653.31;4994287;28;20182;-84
2021/01/19 01:14:07;;;;;;;6.68;4.70;;;;;;;-10.32;88.42;93650.84;4994415;28;20059;-87
2021/01/19 01:16:35;;;;;;;8.07;5.82;;;;;;;-10.36;87.95;93645.22;4994798;28;20049;-85
2021/01/19 01:19:01;;;;;;;4.72;4.32;;;;;;;-10.44;88.13;93644.78;4994712;28;20466;-84
2021/01/19 01:21:27;;;;;;;6.45;5.95;;;;;;;-10.45;88.04;93644.84;4994466;28;20054;-86
2021/01/19 01:23:54;;;;;;;6.85;5.53;;;;;;;-10.46;88.24;93646.56;4993633;28;20054;-85
2021/01/19 01:26:20;;;;;;;12.27;5.63;;;;;;;-10.59;88.35;93641.34;4994191;28;20502;-85
2021/01/19 01:28:47;;;;;;;19.40;9.25;;;;;;;-10.45;87.84;93647.34;4994548;28;20046;-85
2021/01/19 01:31:19;;;;;;;7.20;6.57;;;;;;;-10.49;88.12;93640.03;4994327;28;20544;-86
2021/01/19 01:33:45;;;;;;;10.40;7.50;;;;;;;-10.52;88.20;93639.41;4994210;28;20575;-85
2021/01/19 01:36:11;;;;;;;4.95;4.53;;;;;;;-10.51;88.12;93626.09;4994227;28;20058;-85
2021/01/19 01:38:38;;;;;;;12.07;5.75;;;;;;;-10.45;88.36;93625.00;4994170;28;20097;-85
2021/01/19 01:41:15;;;;;;;10.98;7.88;;;;;;;-10.54;87.46;93628.72;4994099;28;20057;-85
2021/01/19 01:43:41;;;;;;;6.53;5.28;;;;;;;-10.53;88.72;93631.13;4994310;28;20129;-85
2021/01/19 01:46:10;;;;;;;7.50;6.68;;;;;;;-10.52;88.70;93630.25;4994250;28;20055;-85
2021/01/19 01:48:38;;;;;;;26.73;9.32;;;;;;;-10.49;88.66;93634.25;4994226;28;20134;-85
2021/01/19 01:51:05;;;;;;;8.65;6.97;;;;;;;-10.50;88.18;93630.19;4993731;28;20108;-85
2021/01/19 01:53:32;;;;;;;15.32;7.40;;;;;;;-10.48;87.83;93635.88;4993806;28;20046;-84
2021/01/19 01:55:58;;;;;;;13.68;8.20;;;;;;;-10.73;88.12;93602.28;4994294;28;20050;-84
2021/01/19 01:58:25;;;;;;;8.07;5.97;;;;;;;-10.49;88.00;93634.25;4993202;28;20058;-85
2021/01/19 02:00:53;;;;;;;13.88;8.45;;;;;;;-10.49;88.25;93634.25;4993898;28;20050;-86
2021/01/19 02:03:19;;;;;;;8.52;6.32;;;;;;;-10.49;87.96;93634.25;4993014;28;20043;-85
2021/01/19 02:05:46;;;;;;;5.13;3.53;;;;;;;-10.48;87.71;93638.34;5011207;28;20061;-85
2021/01/19 02:08:23;;;;;;;9.13;4.47;;;;;;;-10.57;88.31;93636.31;5009937;28;20054;-84
2021/01/19 02:10:58;;;;;;;8.95;6.80;;;;;;;-10.56;88.28;93638.72;4993581;28;20554;-85
2021/01/19 02:13:31;;;;;;;9.05;7.28;;;;;;;-10.58;88.33;93635.50;4993517;28;20061;-85
2021/01/19 02:16:03;;;;;;;7.43;6.88;;;;;;;-10.55;88.16;93630.41;4993522;28;20057;-85
2021/01/19 02:18:43;;;;;;;7.30;6.28;;;;;;;-10.55;88.75;93622.97;4993399;28;20093;-85
2021/01/19 02:21:39;;;;;;;17.38;9.63;;;;;;;-10.54;88.46;93626.22;4985727;28;20058;-85
2021/01/19 02:24:13;;;;;;;16.13;6.47;;;;;;;-10.52;88.36;93619.53;4993340;28;20043;-85
2021/01/19 02:27:06;;;;;;;8.52;7.80;;;;;;;-10.55;88.69;93625.44;4993220;28;20054;-85
2021/01/19 02:30:02;;;;;;;14.18;7.70;;;;;;;-10.59;88.40;93621.50;4993417;28;20077;-85
2021/01/19 02:32:40;;;;;;;10.55;7.72;;;;;;;-10.67;88.39;93621.03;4993151;28;20510;-86
2021/01/19 02:35:13;;;;;;;9.18;8.15;;;;;;;-10.79;88.67;93613.28;4993381;28;20125;-85
2021/01/19 02:37:51;;;;;;;14.50;8.63;;;;;;;-10.69;89.31;93635.19;4993260;28;20054;-84
2021/01/19 02:40:18;;;;;;;9.50;8.18;;;;;;;-10.65;88.77;93636.66;4993238;28;20050;-85
2021/01/19 02:42:50;;;;;;;7.22;6.47;;;;;;;-10.62;88.61;93639.81;4993107;28;20052;-85
2021/01/19 02:45:17;;;;;;;10.07;9.05;;;;;;;-10.61;88.62;93635.63;4992807;28;20042;-86
2021/01/19 02:47:45;;;;;;;9.50;6.47;;;;;;;-10.62;88.61;93636.50;4992914;28;20047;-84
2021/01/19 02:50:12;;;;;;;7.30;6.57;;;;;;;-10.60;88.59;93632.31;4992953;28;20050;-85
2021/01/19 02:52:40;;;;;;;14.20;8.40;;;;;;;-10.65;87.35;93631.72;4993028;28;20053;-85
2021/01/19 02:55:07;;;;;;;28.50;13.25;;;;;;;-10.67;87.86;93639.22;4992798;28;20050;-85
2021/01/19 02:58:03;;;;;;;19.27;13.05;;;;;;;-10.64;88.54;93639.09;4992751;28;20062;-85
2021/01/19 03:00:40;;;;;;;4.97;4.57;;;;;;;-10.77;88.34;93626.44;4992849;28;20423;-85
2021/01/19 03:03:09;;;;;;;16.83;5.78;;;;;;;-10.61;88.45;93640.59;4991429;28;20050;-84
2021/01/19 03:05:38;;;;;;;9.68;6.30;;;;;;;-10.60;88.33;93642.22;4988659;28;20077;-84
2021/01/19 03:08:05;;;;;;;7.15;3.20;;;;;;;-10.75;nan;93614.75;4992381;28;20096;-84
2021/01/19 03:10:34;;;;;;;4.25;3.00;;;;;;;-10.52;88.70;93650.13;5004745;28;20485;-84
2021/01/19 03:13:02;;;;;;;9.00;3.13;;;;;;;-10.48;88.36;93644.13;5001942;28;20101;-84
2021/01/19 03:15:28;;;;;;;5.57;5.07;;;;;;;-10.51;88.28;93631.84;4992576;28;20046;-84
2021/01/19 03:17:55;;;;;;;3.40;3.10;;;;;;;-10.38;88.72;93649.44;4992433;28;20058;-85
2021/01/19 03:20:25;;;;;;;2.70;2.50;;;;;;;-10.38;87.98;93643.69;4992305;28;20097;-84
2021/01/19 03:22:51;;;;;;;4.32;3.92;;;;;;;-10.45;88.26;93635.75;4992262;28;20058;-85
2021/01/19 03:25:18;;;;;;;5.60;5.20;;;;;;;-10.31;88.45;93649.94;4992045;28;20427;-84
2021/01/19 03:27:44;;;;;;;2.92;2.50;;;;;;;-10.31;87.81;93652.44;4992350;28;20053;-84
2021/01/19 03:30:12;;;;;;;1.60;1.50;;;;;;;-10.35;88.60;93648.47;4992274;28;20466;-83
2021/01/19 03:32:38;;;;;;;13.88;5.53;;;;;;;-10.23;88.36;93650.38;4992023;28;20054;-84
2021/01/19 03:35:06;;;;;;;3.50;3.20;;;;;;;-10.23;88.54;93639.66;4991993;28;20051;-84
2021/01/19 03:37:33;;;;;;;15.10;7.32;;;;;;;-10.12;88.63;93646.56;4991877;28;20532;-84
2021/01/19 03:39:59;;;;;;;12.52;6.93;;;;;;;-10.12;88.33;93647.41;4992419;28;20042;-84
2021/01/19 03:42:25;;;;;;;8.88;7.65;;;;;;;-10.07;88.64;93645.50;4991737;28;20058;-84
2021/01/19 03:44:51;;;;;;;6.05;4.82;;;;;;;-9.98;88.45;93641.75;4992056;28;20108;-85
2021/01/19 03:47:18;;;;;;;10.35;8.48;;;;;;;-9.99;87.47;93647.59;4991818;28;20050;-85
2021/01/19 03:49:44;;;;;;;8.13;7.15;;;;;;;-9.99;87.53;93647.59;4991516;28;20089;-84
2021/01/19 03:52:10;;;;;;;8.45;5.32;;;;;;;-9.91;87.39;93658.84;4991645;28;20058;-84
2021/01/19 03:54:37;;;;;;;8.20;5.88;;;;;;;-9.98;87.27;93656.66;4991555;28;20057;-84
2021/01/19 03:57:04;;;;;;;9.00;6.47;;;;;;;-10.16;87.79;93625.22;4991586;28;20484;-84
2021/01/19 03:59:30;;;;;;;7.57;6.88;;;;;;;-10.25;88.46;93626.47;4991730;28;20097;-83
2021/01/19 04:01:56;;;;;;;11.80;5.32;;;;;;;-9.98;88.75;93654.19;4991771;28;20089;-84
2021/01/19 04:04:22;;;;;;;5.88;4.57;;;;;;;-10.00;88.36;93655.91;4991210;28;20073;-85
2021/01/19 04:06:49;;;;;;;5.38;4.90;;;;;;;-10.03;88.09;93653.59;4987580;28;20057;-84
2021/01/19 04:09:15;;;;;;;6.95;6.05;;;;;;;-10.09;88.21;93642.25;4991115;28;20101;-84
2021/01/19 04:11:42;;;;;;;6.20;4.10;;;;;;;-9.99;87.24;93657.53;4991661;28;20162;-85
2021/01/19 04:14:08;;;;;;;8.60;4.28;;;;;;;-10.41;86.97;93619.78;4991552;28;20050;-85
2021/01/19 04:16:34;;;;;;;11.77;5.82;;;;;;;-10.21;88.29;93657.75;4991500;28;20050;-84
2021/01/19 04:19:01;;;;;;;4.63;3.72;;;;;;;-10.03;89.95;93657.75;4990991;28;20050;-84
2021/01/19 04:21:27;;;;;;;11.38;6.47;;;;;;;-9.96;90.21;93656.59;4991167;28;20550;-85
2021/01/19 04:23:54;;;;;;;11.45;9.23;;;;;;;-9.88;89.84;93671.09;4991357;28;20097;-84
2021/01/19 04:26:20;;;;;;;12.48;8.77;;;;;;;-9.85;89.74;93674.28;4982555;28;20042;-85
2021/01/19 04:28:48;;;;;;;7.65;6.70;;;;;;;-9.84;89.28;93675.88;4959626;28;20046;-85
2021/01/19 04:31:14;;;;;;;6.60;5.35;;;;;;;-9.88;88.93;93681.88;4991133;28;20042;-86
2021/01/19 04:33:40;;;;;;;10.07;7.22;;;;;;;-9.91;88.78;93668.78;4975940;28;20046;-85
2021/01/19 04:36:07;;;;;;;7.82;5.38;;;;;;;-9.83;88.68;93684.94;4979955;28;20054;-85
2021/01/19 04:38:33;;;;;;;6.10;4.45;;;;;;;-9.84;88.78;93682.50;4991243;28;20046;-86
2021/01/19 04:40:59;;;;;;;7.47;6.72;;;;;;;-9.88;88.10;93681.06;4991410;28;20050;-85
2021/01/19 04:43:27;;;;;;;5.95;3.97;;;;;;;-9.97;87.54;93689.75;4991209;28;20093;-85
2021/01/19 04:45:54;;;;;;;6.38;5.88;;;;;;;-10.01;87.73;93686.63;4991154;28;20054;-85
2021/01/19 04:48:21;;;;;;;4.57;4.28;;;;;;;-10.02;88.25;93691.66;4991449;28;20057;-84
2021/01/19 04:50:47;;;;;;;5.32;4.65;;;;;;;-10.15;88.42;93681.53;4991737;28;20058;-85
2021/01/19 04:53:18;;;;;;;8.85;6.30;;;;;;;-10.09;88.91;93683.72;4990692;28;20054;-86
2021/01/19 04:55:53;;;;;;;7.35;5.57;;;;;;;-10.02;88.85;93685.03;4990776;28;20530;-85
2021/01/19 04:58:22;;;;;;;7.82;5.25;;;;;;;-10.02;88.60;93685.03;4991555;28;20054;-85
2021/01/19 05:01:04;;;;;;;13.45;6.63;;;;;;;-10.00;88.91;93685.75;4990042;28;20054;-85
2021/01/19 05:03:38;;;;;;;16.48;10.20;;;;;;;-10.01;88.91;93686.63;4991171;28;20166;-86
2021/01/19 05:06:16;;;;;;;15.27;8.50;;;;;;;-10.07;88.74;93679.47;4995275;28;20046;-85
2021/01/19 05:09:07;;;;;;;22.80;9.32;;;;;;;-10.04;88.92;93688.44;4987499;28;20049;-85
2021/01/19 05:11:48;;;;;;;12.23;8.25;;;;;;;-10.08;88.93;93695.25;4987557;28;20085;-85
2021/01/19 05:14:20;;;;;;;6.93;5.68;;;;;;;-10.09;nan;93694.44;4990767;28;20097;-85
2021/01/19 05:16:48;;;;;;;13.27;7.90;;;;;;;-10.44;88.87;93652.25;4990336;28;20092;-85
2021/01/19 05:19:15;;;;;;;8.18;7.28;;;;;;;-10.08;89.10;93696.06;4988258;28;20046;-85
2021/01/19 05:21:46;;;;;;;6.78;6.10;;;;;;;-10.09;88.74;93696.94;4999860;28;20510;-85
2021/01/19 05:24:13;;;;;;;9.20;8.48;;;;;;;-10.13;88.60;93700.47;5010193;28;20401;-85
2021/01/19 05:26:40;;;;;;;11.57;7.78;;;;;;;-10.16;88.15;93695.63;5004734;28;20050;-85
2021/01/19 05:29:06;;;;;;;14.65;8.88;;;;;;;-10.18;88.15;93696.56;4990900;28;20449;-85
2021/01/19 05:31:33;;;;;;;14.68;8.50;;;;;;;-10.23;88.33;93699.28;4990594;28;20069;-85
2021/01/19 05:34:05;;;;;;;7.60;6.93;;;;;;;-10.29;88.02;93697.88;4993776;28;20050;-85
2021/01/19 05:36:46;;;;;;;7.60;6.95;;;;;;;-10.28;88.22;93708.63;4994246;28;20054;-85
2021/01/19 05:39:15;;;;;;;4.03;3.72;;;;;;;-10.36;88.59;93713.94;4967148;28;20058;-85
2021/01/19 05:41:44;;;;;;;7.07;6.43;;;;;;;-10.35;88.53;93721.31;4993165;28;20050;-86
2021/01/19 05:44:12;;;;;;;4.32;3.53;;;;;;;-10.42;88.60;93715.00;4994161;28;20082;-85
2021/01/19 05:46:44;;;;;;;7.97;6.95;;;;;;;-10.43;88.97;93715.13;4993886;28;20117;-85
2021/01/19 05:49:15;;;;;;;12.27;8.05;;;;;;;-10.41;89.35;93700.94;4993880;28;20046;-85
2021/01/19 05:51:43;;;;;;;23.83;12.15;;;;;;;-10.31;89.90;93706.25;4993693;28;20097;-85
2021/01/19 05:54:11;;;;;;;6.80;5.78;;;;;;;-10.29;89.87;93702.84;4993937;28;20050;-85
2021/01/19 05:56:38;;;;;;;10.10;9.30;;;;;;;-10.18;89.53;93717.25;4993943;28;20054;-86
2021/01/19 05:59:05;;;;;;;10.70;8.13;;;;;;;-10.25;90.25;93694.38;4993684;28;20051;-85
2021/01/19 06:01:33;;;;;;;12.15;11.05;;;;;;;-10.01;89.97;93710.69;4994068;28;20138;-85
2021/01/19 06:04:01;;;;;;;4.43;3.60;;;;;;;-9.95;90.00;93710.38;4993860;28;20100;-85
2021/01/19 06:06:30;;;;;;;12.50;7.90;;;;;;;-9.84;90.36;93717.31;4993790;28;20050;-86
2021/01/19 06:09:00;;;;;;;9.57;6.13;;;;;;;-9.86;89.93;93704.16;4993735;28;20491;-85
2021/01/19 06:11:27;;;;;;;14.60;11.18;;;;;;;-10.40;89.85;93623.88;4993585;28;20053;-85
2021/01/19 06:13:54;;;;;;;7.72;7.13;;;;;;;-9.72;89.34;93714.22;4993490;28;20053;-85
2021/01/19 06:16:22;;;;;;;12.13;8.60;;;;;;;-9.63;89.38;93712.19;4993499;28;20514;-85
2021/01/19 06:18:49;;;;;;;5.97;5.38;;;;;;;-9.62;88.89;93709.63;4993329;28;20141;-85
2021/01/19 06:21:30;;;;;;;7.32;5.20;;;;;;;-9.64;89.01;93703.91;4993505;28;20050;-84
2021/01/19 06:23:56;;;;;;;16.50;10.07;;;;;;;-9.65;89.23;93682.41;4993125;28;20145;-86
2021/01/19 06:26:23;;;;;;;20.90;8.60;;;;;;;-9.57;88.98;93689.50;4993297;28;20054;-86
2021/01/19 06:28:49;;;;;;;8.77;6.85;;;;;;;-9.55;89.37;93705.13;4993568;28;20050;-85
2021/01/19 06:31:20;;;;;;;10.13;8.05;;;;;;;-9.77;89.58;93655.69;4993288;28;20059;-85
2021/01/19 06:33:48;;;;;;;10.50;9.48;;;;;;;-9.45;89.37;93695.56;4993545;28;20046;-85
2021/01/19 06:36:16;;;;;;;12.75;7.70;;;;;;;-9.55;89.85;93675.28;4993266;28;20487;-85
2021/01/19 06:38:45;;;;;;;11.38;8.77;;;;;;;-9.36;89.71;93697.56;4993008;28;20050;-85
2021/01/19 06:41:16;;;;;;;14.10;7.60;;;;;;;-9.26;89.96;93700.41;4993107;28;20047;-85
2021/01/19 06:43:50;;;;;;;12.05;6.00;;;;;;;-9.18;89.92;93698.31;4993175;28;20450;-85
2021/01/19 06:46:19;;;;;;;10.18;6.82;;;;;;;-9.13;89.62;93690.63;4993017;28;20454;-85
2021/01/19 06:48:47;;;;;;;18.05;7.53;;;;;;;-8.97;89.79;93700.59;4993053;28;20058;-85
2021/01/19 06:51:14;;;;;;;16.23;12.75;;;;;;;-8.87;89.48;93700.91;4992550;28;20058;-85
2021/01/19 06:53:46;;;;;;;9.45;7.45;;;;;;;-8.76;89.57;93711.13;4992636;28;20050;-86
2021/01/19 06:56:14;;;;;;;15.27;10.75;;;;;;;-8.80;89.69;93692.22;4992861;28;20085;-85
2021/01/19 06:58:49;;;;;;;28.17;15.05;;;;;;;-8.51;89.95;93717.28;4992771;28;20042;-85
2021/01/19 07:01:17;;;;;;;16.80;11.20;;;;;;;-8.33;89.27;93719.66;4993082;28;20061;-85
2021/01/19 07:03:44;;;;;;;17.17;11.57;;;;;;;-8.31;87.76;93712.91;4992510;28;20043;-85
2021/01/19 07:06:12;;;;;;;14.68;11.18;;;;;;;-8.32;88.43;93706.31;4992777;28;20058;-86
2021/01/19 07:09:23;;;;;;;16.40;11.02;;;;;;;-8.14;88.13;93713.69;4992696;28;20054;-85
2021/01/19 07:12:06;;;;;;;10.77;8.68;;;;;;;-8.15;88.12;93717.84;4992476;28;20162;-86
2021/01/19 07:14:41;;;;;;;14.57;10.25;;;;;;;-8.09;88.93;93720.03;4992541;28;20447;-86
2021/01/19 07:17:08;;;;;;;10.23;8.23;;;;;;;-8.08;nan;93716.66;4992155;28;20054;-86
2021/01/19 07:19:43;;;;;;;16.80;9.23;;;;;;;-7.93;88.66;93726.63;4992413;28;20054;-85
2021/01/19 07:22:10;;;;;;;12.13;9.02;;;;;;;-7.88;87.95;93719.72;4992262;28;20065;-86
2021/01/19 07:24:41;;;;;;;21.35;11.35;;;;;;;-7.91;88.34;93702.44;4992091;28;20057;-86
2021/01/19 07:27:10;;;;;;;16.73;9.30;;;;;;;-7.66;88.29;93734.28;4992205;28;20566;-87
2021/01/19 07:29:37;;;;;;;8.25;7.45;;;;;;;-7.55;88.33;93735.38;4992145;28;20487;-86
2021/01/19 07:32:09;;;;;;;12.88;9.90;;;;;;;-7.47;87.81;93737.41;4992188;28;20100;-85
2021/01/19 07:34:37;;;;;;;12.80;7.65;;;;;;;-7.38;87.95;93732.72;4992049;28;20174;-86
2021/01/19 07:37:03;;;;;;;14.73;7.95;;;;;;;-7.46;87.95;93711.59;4991849;28;20050;-86
2021/01/19 07:39:32;;;;;;;15.02;9.02;;;;;;;-7.32;88.26;93723.28;4992162;28;20054;-86
2021/01/19 07:42:10;;;;;;;7.75;6.85;;;;;;;-7.13;87.99;93725.50;4992165;28;20483;-86
2021/01/19 07:44:36;;;;;;;10.52;8.63;;;;;;;-7.05;87.06;93735.06;4992108;28;20054;-85
2021/01/19 07:47:13;;;;;;;15.52;6.78;;;;;;;-7.02;87.53;93730.69;4991989;28;20050;-86
2021/01/19 07:49:40;;;;;;;34.53;17.35;;;;;;;-7.12;88.17;93695.44;4991816;28;20384;-85
2021/01/19 07:52:10;;;;;;;13.50;10.13;;;;;;;-6.72;87.88;93743.91;4992055;28;20050;-86
2021/01/19 07:54:37;;;;;;;5.90;5.13;;;;;;;-6.71;87.09;93748.06;4991574;28;20046;-86
2021/01/19 07:57:12;;;;;;;11.32;8.73;;;;;;;-7.06;87.53;93724.25;4991589;28;20057;-86
2021/01/19 07:59:39;;;;;;;17.98;8.40;;;;;;;-7.36;88.76;93701.88;4991633;28;20097;-86
2021/01/19 08:02:06;;;;;;;39.00;26.23;;;;;;;-7.31;89.65;93723.16;4991467;28;20046;-86
2021/01/19 08:04:34;;;;;;;24.70;13.13;;;;;;;-6.95;89.43;93756.06;4991883;28;20065;-86
2021/01/19 08:07:10;;;;;;;13.52;9.52;;;;;;;-6.77;89.49;93745.91;4991740;28;20046;-87
2021/01/19 08:09:37;;;;;;;32.80;15.35;;;;;;;-6.72;88.91;93731.44;4991561;28;20054;-87
2021/01/19 08:12:04;;;;;;;;;;;;;;;-6.46;88.03;93759.06;4992037;28;20506;-87
2021/01/19 08:14:38;;;;;;;25.10;12.43;;;;;;;-6.38;86.76;93741.09;4991325;28;20285;-87
2021/01/19 08:17:05;;;;;;;18.15;13.25;;;;;;;-6.10;85.78;93766.91;4991533;28;20050;-86
2021/01/19 08:19:40;;;;;;;7.28;6.57;;;;;;;-6.06;84.71;93773.34;4991341;28;20510;-86
2021/01/19 08:22:07;;;;;;;14.50;10.98;;;;;;;-6.17;85.09;93751.47;4991449;28;20077;-86
2021/01/19 08:24:33;;;;;;;34.72;16.80;;;;;;;-6.15;86.68;93758.88;4991467;28;20063;-88
2021/01/19 08:27:00;;;;;;;51.10;26.42;;;;;;;-6.07;86.51;93766.72;4991199;28;20407;-88
2021/01/19 08:29:27;;;;;;;203.50;92.85;;;;;;;-5.94;87.04;93772.53;4991543;28;20089;-86
2021/01/19 08:31:56;;;;;;;34.75;21.25;;;;;;;-5.85;86.48;93778.66;4991421;28;20053;-87
2021/01/19 08:34:24;;;;;;;31.00;15.90;;;;;;;-5.97;85.73;93775.22;4991275;28;20093;-86
2021/01/19 08:36:50;;;;;;;34.85;19.52;;;;;;;-6.06;86.01;93755.81;4991353;28;20108;-87
2021/01/19 08:39:17;;;;;;;31.75;16.88;;;;;;;-6.12;85.66;93741.19;4991233;28;20545;-87
2021/01/19 08:41:45;;;;;;;38.22;18.75;;;;;;;-5.77;85.48;93775.69;4990951;28;20062;-86
2021/01/19 08:44:12;;;;;;;38.28;15.90;;;;;;;-5.74;85.75;93772.19;4991371;28;20057;-87
2021/01/19 08:46:39;;;;;;;34.60;20.02;;;;;;;-5.63;85.50;93779.81;4991475;28;20046;-88
2021/01/19 08:49:08;;;;;;;50.60;20.45;;;;;;;-5.45;85.68;93784.56;4991007;28;20089;-87
2021/01/19 08:51:36;;;;;;;33.60;18.70;;;;;;;-5.44;85.47;93766.94;4991170;28;20096;-87
2021/01/19 08:54:07;;;;;;;38.90;19.25;;;;;;;-5.41;84.27;93761.72;4990952;28;20499;-87
2021/01/19 08:56:33;;;;;;;74.68;36.25;;;;;;;-5.10;84.89;93784.78;4991222;28;20089;-88
2021/01/19 08:58:59;;;;;;;;;;;;;;;-4.99;84.72;93784.06;4991553;28;20042;-88
2021/01/19 09:01:25;;;;;;;46.22;23.40;;;;;;;-4.96;85.04;93776.38;4990933;28;19928;-88
2021/01/19 09:03:56;;;;;;;74.50;25.92;;;;;;;-5.08;84.96;93738.78;4991298;28;20392;-88
2021/01/19 09:06:24;;;;;;;28.73;17.48;;;;;;;-4.82;83.68;93759.59;4990922;28;21107;-88
2021/01/19 09:08:59;;;;;;;44.03;15.52;;;;;;;-4.70;83.22;93747.97;4994248;28;20073;-88
2021/01/19 09:11:30;;;;;;;42.33;18.67;;;;;;;-4.67;83.04;93749.47;4994979;28;20184;-89
2021/01/19 09:14:02;;;;;;;32.33;15.95;;;;;;;-4.47;82.90;93770.69;4994992;28;20058;-88
2021/01/19 09:16:31;;;;;;;26.08;16.23;;;;;;;-4.99;83.20;93686.34;4994736;28;20129;-89
2021/01/19 09:18:59;;;;;;;32.20;13.02;;;;;;;-4.24;83.29;93785.88;4994638;28;20058;-89
2021/01/19 09:21:27;;;;;;;26.58;12.27;;;;;;;-4.13;82.63;93778.41;4994508;28;20050;-89
2021/01/19 09:23:54;;;;;;;20.92;13.05;;;;;;;-4.00;82.65;93768.31;4994567;28;20388;-89
2021/01/19 09:26:21;;;;;;;47.72;21.70;;;;;;;-3.79;82.15;93770.25;4994696;28;20054;-89
2021/01/19 09:28:48;;;;;;;56.53;24.75;;;;;;;-3.72;81.86;93726.22;4994571;28;20047;-90
2021/01/19 09:31:16;;;;;;;46.88;23.17;;;;;;;-3.10;80.82;93776.25;4994221;28;20506;-90
2021/01/19 09:33:44;;;;;;;32.17;17.20;;;;;;;-2.85;79.44;93760.16;4994091;28;20082;-90
2021/01/19 09:36:11;;;;;;;30.83;13.82;;;;;;;-2.82;78.30;93731.47;4994195;28;20057;-90
2021/01/19 09:38:41;;;;;;;60.50;25.63;;;;;;;-2.72;77.60;93734.88;4994186;28;20074;-90
2021/01/19 09:41:08;;;;;;;21.50;10.43;;;;;;;-2.69;76.48;93724.59;4978438;28;20414;-90
2021/01/19 09:43:35;;;;;;;28.67;12.52;;;;;;;-2.43;76.97;93748.69;4994099;28;20050;-90
2021/01/19 09:46:04;;;;;;;31.92;13.30;;;;;;;-2.35;76.92;93743.06;4993930;28;20530;-90
2021/01/19 09:48:34;;;;;;;17.48;7.82;;;;;;;-2.26;76.04;93746.59;4994045;28;20050;-89
2021/01/19 09:51:01;;;;;;;20.13;9.63;;;;;;;-2.23;76.03;93739.59;4994228;28;20054;-88
2021/01/19 09:53:30;;;;;;;7.55;4.32;;;;;;;-2.35;76.59;93743.88;4993976;28;20042;-88
2021/01/19 09:56:00;;;;;;;11.75;6.18;;;;;;;-2.35;76.26;93720.44;4993997;28;20202;-89
2021/01/19 09:58:27;;;;;;;13.30;3.60;;;;;;;-2.28;74.03;93739.16;4993917;28;20050;-88
2021/01/19 10:00:54;;;;;;;5.50;3.65;;;;;;;-2.20;76.40;93731.03;4993613;28;20096;-88
2021/01/19 10:03:25;;;;;;;6.68;3.88;;;;;;;-2.00;76.45;93744.56;4994001;28;20057;-87
2021/01/19 10:06:03;;;;;;;15.20;8.50;;;;;;;-1.84;75.62;93734.13;4993936;28;20054;-87
2021/01/19 10:08:29;;;;;;;12.70;5.80;;;;;;;-2.40;75.45;93647.81;4993712;28;20046;-87
2021/01/19 10:10:57;;;;;;;9.25;3.28;;;;;;;-1.71;74.88;93738.19;4993653;28;20054;-86
2021/01/19 10:13:26;;;;;;;9.60;4.88;;;;;;;-1.46;73.73;93738.75;4993437;28;20514;-86
2021/01/19 10:16:04;;;;;;;33.75;13.60;;;;;;;-1.34;73.05;93735.25;4993715;28;20046;-86
2021/01/19 10:18:31;;;;;;;17.58;7.35;;;;;;;-1.09;73.10;93739.09;4993133;28;20054;-86
2021/01/19 10:20:58;;;;;;;8.40;3.63;;;;;;;-1.18;69.69;93741.56;4993079;28;20913;-86
2021/01/19 10:23:29;;;;;;;5.45;2.50;;;;;;;-1.18;72.13;93736.50;4993228;28;20419;-86
2021/01/19 10:26:08;;;;;;;8.05;4.95;;;;;;;-1.17;73.43;93733.09;4993326;28;20050;-85
2021/01/19 10:28:41;;;;;;;6.88;3.42;;;;;;;-1.08;71.72;93732.31;4993707;28;20057;-85
2021/01/19 10:31:15;;;;;;;6.82;3.08;;;;;;;-1.48;71.07;93716.22;4993291;28;20133;-85
2021/01/19 10:33:52;;;;;;;3.58;2.67;;;;;;;-1.17;70.47;93726.31;4993213;28;20054;-86
2021/01/19 10:36:18;;;;;;;8.45;3.40;;;;;;;-1.28;72.90;93702.00;4993078;28;20053;-85
2021/01/19 10:38:45;;;;;;;;;;;;;;;-1.10;72.29;93717.31;4992980;28;20050;-85
2021/01/19 10:41:23;;;;;;;7.32;3.40;;;;;;;-0.93;72.66;93716.88;4992283;28;19925;-84
2021/01/19 10:43:51;;;;;;;6.43;3.85;;;;;;;-0.63;72.34;93710.19;5002422;28;20089;-85
2021/01/19 10:46:20;;;;;;;6.55;3.30;;;;;;;-0.57;70.88;93707.16;4990509;28;20051;-84
2021/01/19 10:48:47;;;;;;;8.95;3.03;;;;;;;-0.48;70.85;93706.38;4992388;28;20462;-84
2021/01/19 10:51:13;;;;;;;3.70;1.95;;;;;;;-0.28;69.96;93712.28;5006483;28;20060;-84
2021/01/19 10:53:41;;;;;;;;;;;;;;;-0.25;67.42;93710.41;5012483;28;20084;-84
2021/01/19 10:56:14;;;;;;;6.18;2.97;;;;;;;-0.36;68.07;93708.81;5012412;28;19952;-84
2021/01/19 10:58:40;;;;;;;4.20;2.38;;;;;;;-0.54;69.71;93687.50;5012247;28;20056;-83
2021/01/19 11:01:07;;;;;;;10.57;2.55;;;;;;;-0.60;70.78;93694.81;5012312;28;20049;-84
2021/01/19 11:03:32;;;;;;;;;;;;;;;-1.01;69.99;93708.22;5013029;28;20053;-84
2021/01/19 11:05:59;;;;;;;3.40;2.17;;;;;;;-1.10;71.75;93689.59;5012322;28;20401;-84
2021/01/19 11:08:25;;;;;;;5.25;2.92;;;;;;;-0.74;72.05;93703.53;5012363;28;20104;-84
2021/01/19 11:10:52;;;;;;;7.03;3.88;;;;;;;-0.65;72.98;93692.66;5012249;28;20383;-85
2021/01/19 11:13:19;;;;;;;9.48;4.07;;;;;;;-0.51;72.14;93691.50;5012093;28;20104;-84
2021/01/19 11:15:45;;;;;;;3.90;2.42;;;;;;;-0.36;70.91;93689.41;5011607;28;20057;-84
2021/01/19 11:18:11;;;;;;;;;;;;;;;-0.38;70.14;93683.69;5012728;28;20046;-85
2021/01/19 11:20:39;;;;;;;9.48;4.35;;;;;;;-0.40;69.40;93680.50;5012054;28;20289;-86
2021/01/19 11:23:05;;;;;;;6.22;2.95;;;;;;;-0.65;70.71;93676.75;5011972;28;20053;-85
2021/01/19 11:25:31;;;;;;;;;;;;;;;-0.44;71.80;93671.59;5012364;28;20085;-87
2021/01/19 11:27:58;;;;;;;2.85;1.70;;;;;;;-0.50;71.13;93664.53;5011785;28;20017;-85
2021/01/19 11:30:25;;;;;;;3.47;2.30;;;;;;;-0.57;71.31;93639.84;5010729;28;20046;-86
2021/01/19 11:32:52;;;;;;;10.70;4.13;;;;;;;-0.20;70.94;93660.31;5012044;28;20046;-85
2021/01/19 11:35:18;;;;;;;;;;;;;;;-0.85;70.95;93669.09;5012277;28;20046;-87